Time,TemperatureF,DewpointF,PressureIn,WindDirection,WindDirectionDegrees,WindSpeedMPH,WindSpeedGustMPH,Humidity,HourlyPrecipIn,Conditions,Clouds,dailyrainin,SoftwareType,DateUTC
2013-09-15 00:00:00,63.0,58.5,30.13,NE,45,3.1,3.1,85,0.00,,,0.00,meteobridge,2013-09-15 04:00:00,
2013-09-15 00:01:00,63.0,58.5,30.13,ENE,68,2.2,3.1,85,0.00,,,0.00,meteobridge,2013-09-15 04:01:00,
2013-09-15 00:02:00,63.0,58.5,30.13,North,0,2.2,3.1,85,0.00,,,0.00,meteobridge,2013-09-15 04:02:00,
2013-09-15 00:04:00,62.8,57.6,30.13,NE,45,3.1,3.1,83,0.00,,,0.00,meteobridge,2013-09-15 04:04:00,
2013-09-15 00:10:00,63.0,57.4,30.13,East,90,3.1,3.1,82,0.00,,,0.00,meteobridge,2013-09-15 04:10:00,
2013-09-15 00:13:00,63.0,57.4,30.13,East,90,3.1,3.1,82,0.00,,,0.00,meteobridge,2013-09-15 04:13:00,
2013-09-15 00:18:00,63.1,57.2,30.14,NE,45,3.1,3.8,81,0.00,,,0.00,meteobridge,2013-09-15 04:18:00,
2013-09-15 00:23:00,63.1,56.8,30.14,NE,45,3.8,3.8,80,0.00,,,0.00,meteobridge,2013-09-15 04:23:00,
2013-09-15 00:28:00,63.1,57.2,30.14,NE,45,3.8,4.5,81,0.00,,,0.00,meteobridge,2013-09-15 04:28:00,
2013-09-15 00:33:00,63.1,57.2,30.14,NE,45,3.1,3.1,81,0.00,,,0.00,meteobridge,2013-09-15 04:33:00,
2013-09-15 00:38:00,63.0,57.0,30.14,East,90,3.1,3.1,81,0.00,,,0.00,meteobridge,2013-09-15 04:38:00,
2013-09-15 00:44:00,62.8,57.2,30.14,East,90,1.6,2.2,82,0.00,,,0.00,meteobridge,2013-09-15 04:44:00,
2013-09-15 00:49:00,62.8,57.2,30.14,NE,45,2.2,3.8,82,0.00,,,0.00,meteobridge,2013-09-15 04:49:00,
2013-09-15 00:54:00,62.6,56.7,30.14,North,0,3.8,3.8,81,0.00,,,0.00,meteobridge,2013-09-15 04:54:00,
2013-09-15 00:59:00,62.4,56.8,30.14,North,0,3.1,3.1,82,0.00,,,0.00,meteobridge,2013-09-15 04:59:00,
2013-09-15 01:04:00,62.4,56.8,30.14,South,180,1.6,3.8,82,0.00,,,0.00,meteobridge,2013-09-15 05:04:00,
2013-09-15 01:10:00,62.1,56.5,30.14,North,0,2.2,3.1,82,0.00,,,0.00,meteobridge,2013-09-15 05:10:00,
2013-09-15 01:15:00,62.1,56.8,30.14,North,0,3.1,3.1,83,0.00,,,0.00,meteobridge,2013-09-15 05:15:00,
2013-09-15 01:20:00,61.9,56.7,30.15,NE,45,1.6,2.2,83,0.00,,,0.00,meteobridge,2013-09-15 05:20:00,
2013-09-15 01:25:00,62.1,56.5,30.15,NE,45,3.1,3.1,82,0.00,,,0.00,meteobridge,2013-09-15 05:25:00,
2013-09-15 01:30:00,62.1,56.5,30.15,NE,45,2.2,3.8,82,0.00,,,0.00,meteobridge,2013-09-15 05:30:00,
2013-09-15 01:35:00,61.9,56.3,30.15,NE,45,4.5,4.5,82,0.00,,,0.00,meteobridge,2013-09-15 05:35:00,
2013-09-15 01:41:00,61.9,56.3,30.15,North,0,3.8,4.5,82,0.00,,,0.00,meteobridge,2013-09-15 05:41:00,
2013-09-15 01:46:00,61.7,56.1,30.15,North,0,4.5,6.0,82,0.00,,,0.00,meteobridge,2013-09-15 05:46:00,
2013-09-15 01:51:00,61.5,55.9,30.15,NE,45,2.2,3.8,82,0.00,,,0.00,meteobridge,2013-09-15 05:51:00,
2013-09-15 01:56:00,61.5,55.9,30.15,NE,45,2.2,4.5,82,0.00,,,0.00,meteobridge,2013-09-15 05:56:00,
2013-09-15 02:01:00,61.3,55.4,30.15,NE,45,4.5,4.5,81,0.00,,,0.00,meteobridge,2013-09-15 06:01:00,
2013-09-15 02:06:00,61.3,55.8,30.15,North,0,5.4,5.4,82,0.00,,,0.00,meteobridge,2013-09-15 06:06:00,
2013-09-15 02:12:00,61.3,55.8,30.15,NE,45,3.1,3.1,82,0.00,,,0.00,meteobridge,2013-09-15 06:12:00,
2013-09-15 02:17:00,61.3,55.8,30.15,NE,45,3.1,3.8,82,0.00,,,0.00,meteobridge,2013-09-15 06:17:00,
2013-09-15 02:22:00,61.2,55.6,30.15,NE,45,2.2,3.1,82,0.00,,,0.00,meteobridge,2013-09-15 06:22:00,
2013-09-15 02:27:00,61.0,55.4,30.16,NE,45,2.2,3.8,82,0.00,,,0.00,meteobridge,2013-09-15 06:27:00,
2013-09-15 02:32:00,61.0,55.0,30.16,NE,45,3.1,3.8,81,0.00,,,0.00,meteobridge,2013-09-15 06:32:00,
2013-09-15 02:37:00,61.0,55.0,30.16,NE,45,3.1,3.8,81,0.00,,,0.00,meteobridge,2013-09-15 06:37:00,
2013-09-15 02:43:00,60.8,54.9,30.16,East,90,2.2,4.5,81,0.00,,,0.00,meteobridge,2013-09-15 06:43:00,
2013-09-15 02:48:00,60.6,55.0,30.16,North,0,3.1,3.8,82,0.00,,,0.00,meteobridge,2013-09-15 06:48:00,
2013-09-15 02:53:00,60.6,55.4,30.15,North,0,5.4,5.4,83,0.00,,,0.00,meteobridge,2013-09-15 06:53:00,
2013-09-15 02:58:00,60.8,55.2,30.16,NNE,23,3.8,3.8,82,0.00,,,0.00,meteobridge,2013-09-15 06:58:00,
2013-09-15 03:03:00,60.6,55.4,30.15,NE,45,2.2,2.2,83,0.00,,,0.00,meteobridge,2013-09-15 07:03:00,
2013-09-15 03:08:00,60.4,55.2,30.16,NE,45,1.6,1.6,83,0.00,,,0.00,meteobridge,2013-09-15 07:08:00,
2013-09-15 03:14:00,60.4,55.2,30.16,NE,45,3.1,3.1,83,0.00,,,0.00,meteobridge,2013-09-15 07:14:00,
2013-09-15 03:19:00,60.4,55.2,30.16,NE,45,3.8,3.8,83,0.00,,,0.00,meteobridge,2013-09-15 07:19:00,
2013-09-15 03:24:00,60.4,55.2,30.16,East,90,2.2,2.2,83,0.00,,,0.00,meteobridge,2013-09-15 07:24:00,
2013-09-15 03:29:00,60.3,55.4,30.16,NE,45,2.2,2.2,84,0.00,,,0.00,meteobridge,2013-09-15 07:29:00,
2013-09-15 03:34:00,60.1,55.2,30.16,SE,135,0.7,1.6,84,0.00,,,0.00,meteobridge,2013-09-15 07:34:00,
2013-09-15 03:39:00,60.1,55.2,30.16,East,90,2.2,2.2,84,0.00,,,0.00,meteobridge,2013-09-15 07:39:00,
2013-09-15 03:45:00,59.9,55.0,30.16,East,90,2.2,2.2,84,0.00,,,0.00,meteobridge,2013-09-15 07:45:00,
2013-09-15 03:50:00,59.7,55.2,30.16,East,90,3.1,3.1,85,0.00,,,0.00,meteobridge,2013-09-15 07:50:00,
2013-09-15 03:55:00,59.4,55.2,30.17,East,90,1.6,2.2,86,0.00,,,0.00,meteobridge,2013-09-15 07:55:00,
2013-09-15 04:00:00,59.4,55.2,30.17,SE,135,2.2,3.1,86,0.00,,,0.00,meteobridge,2013-09-15 08:00:00,
2013-09-15 04:05:00,59.4,55.4,30.17,NE,45,2.2,3.1,87,0.00,,,0.00,meteobridge,2013-09-15 08:05:00,
2013-09-15 04:10:00,59.7,55.8,30.17,East,90,3.1,3.1,87,0.00,,,0.00,meteobridge,2013-09-15 08:10:00,
2013-09-15 04:16:00,59.9,55.8,30.17,East,90,3.1,3.1,86,0.00,,,0.00,meteobridge,2013-09-15 08:16:00,
2013-09-15 04:21:00,59.5,55.6,30.16,SE,135,3.1,3.1,87,0.00,,,0.00,meteobridge,2013-09-15 08:21:00,
2013-09-15 04:26:00,59.2,55.6,30.17,ESE,113,2.2,2.2,88,0.00,,,0.00,meteobridge,2013-09-15 08:26:00,
2013-09-15 04:31:00,59.0,55.8,30.16,East,90,2.2,3.1,89,0.00,,,0.00,meteobridge,2013-09-15 08:31:00,
2013-09-15 04:36:00,59.0,56.1,30.16,SE,135,3.1,3.1,90,0.00,,,0.00,meteobridge,2013-09-15 08:36:00,
2013-09-15 04:41:00,58.8,56.1,30.17,East,90,3.1,3.1,91,0.00,,,0.00,meteobridge,2013-09-15 08:41:00,
2013-09-15 04:47:00,58.6,55.9,30.17,NE,45,2.2,2.2,91,0.00,,,0.00,meteobridge,2013-09-15 08:47:00,
2013-09-15 04:52:00,58.6,56.3,30.17,SE,135,1.6,2.2,92,0.00,,,0.00,meteobridge,2013-09-15 08:52:00,
2013-09-15 04:57:00,58.8,56.5,30.17,SE,135,2.2,2.2,92,0.00,,,0.00,meteobridge,2013-09-15 08:57:00,
2013-09-15 05:02:00,58.5,56.1,30.17,East,90,2.2,2.2,92,0.00,,,0.00,meteobridge,2013-09-15 09:02:00,
2013-09-15 05:07:00,59.0,56.7,30.18,SE,135,3.1,3.1,92,0.00,,,0.00,meteobridge,2013-09-15 09:07:00,
2013-09-15 05:12:00,59.0,56.7,30.17,East,90,2.2,3.1,92,0.00,,,0.00,meteobridge,2013-09-15 09:12:00,
2013-09-15 05:18:00,59.0,56.7,30.17,East,90,3.1,3.1,92,0.00,,,0.00,meteobridge,2013-09-15 09:18:00,
2013-09-15 05:23:00,59.2,56.8,30.18,NE,45,2.2,3.1,92,0.00,,,0.00,meteobridge,2013-09-15 09:23:00,
2013-09-15 05:28:00,59.2,57.2,30.18,NE,45,3.8,3.8,93,0.00,,,0.00,meteobridge,2013-09-15 09:28:00,
2013-09-15 05:33:00,59.2,57.2,30.18,NE,45,3.8,3.8,93,0.00,,,0.00,meteobridge,2013-09-15 09:33:00,
2013-09-15 05:38:00,59.2,57.2,30.17,North,0,3.8,3.8,93,0.00,,,0.00,meteobridge,2013-09-15 09:38:00,
2013-09-15 05:43:00,59.0,57.2,30.18,NE,45,2.2,2.2,94,0.00,,,0.00,meteobridge,2013-09-15 09:43:00,
2013-09-15 05:49:00,59.0,57.2,30.18,NE,45,3.1,3.1,94,0.00,,,0.00,meteobridge,2013-09-15 09:49:00,
2013-09-15 05:54:00,59.0,57.2,30.18,NE,45,3.1,3.8,94,0.00,,,0.00,meteobridge,2013-09-15 09:54:00,
2013-09-15 05:59:00,58.8,57.4,30.18,NE,45,2.2,2.2,95,0.00,,,0.00,meteobridge,2013-09-15 09:59:00,
2013-09-15 06:04:00,58.6,57.2,30.19,NE,45,2.2,3.8,95,0.00,,,0.00,meteobridge,2013-09-15 10:04:00,
2013-09-15 06:09:00,58.6,57.6,30.19,NE,45,3.1,3.1,96,0.00,,,0.00,meteobridge,2013-09-15 10:09:00,
2013-09-15 06:14:00,58.6,57.6,30.19,ENE,68,2.2,3.1,96,0.00,,,0.00,meteobridge,2013-09-15 10:14:00,
2013-09-15 06:20:00,58.6,57.6,30.19,NW,315,1.6,3.8,96,0.00,,,0.00,meteobridge,2013-09-15 10:20:00,
2013-09-15 06:25:00,58.5,57.4,30.19,NE,45,1.6,3.1,96,0.00,,,0.00,meteobridge,2013-09-15 10:25:00,
2013-09-15 06:30:00,58.3,57.4,30.19,NE,45,3.8,3.8,97,0.00,,,0.00,meteobridge,2013-09-15 10:30:00,
2013-09-15 06:35:00,58.3,57.4,30.19,North,0,3.8,3.8,97,0.00,,,0.00,meteobridge,2013-09-15 10:35:00,
2013-09-15 06:40:00,58.3,57.4,30.19,North,0,3.1,3.8,97,0.00,,,0.00,meteobridge,2013-09-15 10:40:00,
2013-09-15 06:46:00,58.3,57.4,30.19,NNE,23,3.8,3.8,97,0.00,,,0.00,meteobridge,2013-09-15 10:46:00,
2013-09-15 06:51:00,58.1,57.2,30.19,NE,45,3.8,3.8,97,0.00,,,0.00,meteobridge,2013-09-15 10:51:00,
2013-09-15 06:56:00,58.1,57.2,30.19,NE,45,3.8,3.8,97,0.00,,,0.00,meteobridge,2013-09-15 10:56:00,
2013-09-15 07:01:00,57.9,57.0,30.19,NE,45,3.1,3.8,97,0.00,,,0.00,meteobridge,2013-09-15 11:01:00,
2013-09-15 07:06:00,57.9,57.4,30.19,East,90,2.2,3.8,98,0.00,,,0.00,meteobridge,2013-09-15 11:06:00,
2013-09-15 07:11:00,57.9,57.4,30.20,East,90,2.2,2.2,98,0.00,,,0.00,meteobridge,2013-09-15 11:11:00,
2013-09-15 07:17:00,57.7,57.2,30.19,NE,45,3.1,3.1,98,0.00,,,0.00,meteobridge,2013-09-15 11:17:00,
2013-09-15 07:22:00,57.7,57.2,30.20,ENE,68,3.1,3.1,98,0.00,,,0.00,meteobridge,2013-09-15 11:22:00,
2013-09-15 07:27:00,57.9,57.4,30.19,North,0,3.1,3.8,98,0.00,,,0.00,meteobridge,2013-09-15 11:27:00,
2013-09-15 07:32:00,57.9,57.4,30.20,North,0,3.8,3.8,98,0.00,,,0.00,meteobridge,2013-09-15 11:32:00,
2013-09-15 07:37:00,57.9,57.4,30.21,North,0,5.4,5.4,98,0.00,,,0.00,meteobridge,2013-09-15 11:37:00,
2013-09-15 07:42:00,57.9,57.4,30.21,North,0,4.5,6.0,98,0.00,,,0.00,meteobridge,2013-09-15 11:42:00,
2013-09-15 07:48:00,58.1,57.2,30.21,NNE,23,5.4,6.0,97,0.00,,,0.00,meteobridge,2013-09-15 11:48:00,
2013-09-15 07:53:00,59.5,58.1,30.21,North,0,5.4,5.4,95,0.00,,,0.00,meteobridge,2013-09-15 11:53:00,
2013-09-15 07:58:00,61.0,58.1,30.21,North,0,3.8,5.4,90,0.00,,,0.00,meteobridge,2013-09-15 11:58:00,
2013-09-15 08:03:00,61.9,57.4,30.21,NE,45,4.5,5.4,85,0.00,,,0.00,meteobridge,2013-09-15 12:03:00,
2013-09-15 08:08:00,61.9,56.3,30.21,NE,45,6.0,6.9,82,0.00,,,0.00,meteobridge,2013-09-15 12:08:00,
2013-09-15 08:13:00,62.2,56.7,30.21,North,0,4.5,6.0,82,0.00,,,0.00,meteobridge,2013-09-15 12:13:00,
2013-09-15 08:19:00,63.0,57.0,30.21,North,0,5.4,6.0,81,0.00,,,0.00,meteobridge,2013-09-15 12:19:00,
2013-09-15 08:24:00,63.3,57.0,30.21,North,0,5.4,5.4,80,0.00,,,0.00,meteobridge,2013-09-15 12:24:00,
2013-09-15 08:29:00,64.2,57.6,30.21,North,0,3.8,4.5,79,0.00,,,0.00,meteobridge,2013-09-15 12:29:00,
2013-09-15 08:34:00,65.1,57.7,30.21,North,0,4.5,5.4,77,0.00,,,0.00,meteobridge,2013-09-15 12:34:00,
2013-09-15 08:39:00,65.5,58.1,30.21,NE,45,3.8,3.8,77,0.00,,,0.00,meteobridge,2013-09-15 12:39:00,
2013-09-15 08:44:00,67.3,59.0,30.22,North,0,5.4,5.4,75,0.00,,,0.00,meteobridge,2013-09-15 12:44:00,
2013-09-15 08:50:00,67.6,58.6,30.22,North,0,4.5,4.5,73,0.00,,,0.00,meteobridge,2013-09-15 12:50:00,
2013-09-15 08:55:00,68.2,58.5,30.22,North,0,3.8,3.8,71,0.00,,,0.00,meteobridge,2013-09-15 12:55:00,
2013-09-15 09:00:00,69.1,59.4,30.22,North,0,3.8,3.8,71,0.00,,,0.00,meteobridge,2013-09-15 13:00:00,
2013-09-15 09:05:00,70.2,58.6,30.22,NW,315,3.1,3.1,67,0.00,,,0.00,meteobridge,2013-09-15 13:05:00,
2013-09-15 09:10:00,71.1,58.6,30.22,North,0,4.5,4.5,65,0.00,,,0.00,meteobridge,2013-09-15 13:10:00,
2013-09-15 09:15:00,70.3,58.5,30.22,North,0,5.4,5.4,66,0.00,,,0.00,meteobridge,2013-09-15 13:15:00,
2013-09-15 09:21:00,70.0,58.5,30.22,North,0,4.5,5.4,67,0.00,,,0.00,meteobridge,2013-09-15 13:21:00,
2013-09-15 09:26:00,70.7,58.8,30.22,North,0,6.0,6.0,66,0.00,,,0.00,meteobridge,2013-09-15 13:26:00,
2013-09-15 09:31:00,70.7,59.2,30.22,North,0,6.0,7.6,67,0.00,,,0.00,meteobridge,2013-09-15 13:31:00,
2013-09-15 09:36:00,70.7,59.2,30.22,North,0,5.4,5.4,67,0.00,,,0.00,meteobridge,2013-09-15 13:36:00,
2013-09-15 09:41:00,71.1,59.5,30.22,North,0,5.4,6.9,67,0.00,,,0.00,meteobridge,2013-09-15 13:41:00,
2013-09-15 09:46:00,70.7,59.5,30.22,North,0,7.6,7.6,68,0.00,,,0.00,meteobridge,2013-09-15 13:46:00,
2013-09-15 09:52:00,71.1,60.4,30.23,North,0,5.4,5.4,69,0.00,,,0.00,meteobridge,2013-09-15 13:52:00,
2013-09-15 09:57:00,71.1,59.9,30.23,North,0,4.5,6.9,68,0.00,,,0.00,meteobridge,2013-09-15 13:57:00,
2013-09-15 10:02:00,72.3,59.9,30.23,NW,315,4.5,4.5,65,0.00,,,0.00,meteobridge,2013-09-15 14:02:00,
2013-09-15 10:07:00,74.1,62.1,30.24,NNE,23,3.1,3.1,66,0.00,,,0.00,meteobridge,2013-09-15 14:07:00,
2013-09-15 10:12:00,75.2,60.8,30.24,SE,135,6.9,6.9,61,0.00,,,0.00,meteobridge,2013-09-15 14:12:00,
2013-09-15 10:17:00,73.8,59.0,30.23,SE,135,4.5,6.9,60,0.00,,,0.00,meteobridge,2013-09-15 14:17:00,
2013-09-15 10:23:00,73.9,60.1,30.23,NE,45,4.5,5.4,62,0.00,,,0.00,meteobridge,2013-09-15 14:23:00,
2013-09-15 10:28:00,74.8,61.9,30.23,East,90,4.5,4.5,64,0.00,,,0.00,meteobridge,2013-09-15 14:28:00,
2013-09-15 10:33:00,76.5,61.5,30.23,NW,315,5.4,5.4,60,0.00,,,0.00,meteobridge,2013-09-15 14:33:00,
2013-09-15 10:38:00,78.4,61.9,30.23,East,90,4.5,4.5,57,0.00,,,0.00,meteobridge,2013-09-15 14:38:00,
2013-09-15 10:43:00,78.1,60.6,30.23,NW,315,2.2,3.1,55,0.00,,,0.00,meteobridge,2013-09-15 14:43:00,
2013-09-15 10:48:00,78.6,61.5,30.23,SW,225,5.4,6.0,56,0.00,,,0.00,meteobridge,2013-09-15 14:48:00,
2013-09-15 10:54:00,76.3,61.3,30.23,NW,315,3.8,3.8,60,0.00,,,0.00,meteobridge,2013-09-15 14:54:00,
2013-09-15 10:59:00,77.7,61.7,30.23,West,270,3.8,3.8,58,0.00,,,0.00,meteobridge,2013-09-15 14:59:00,
2013-09-15 11:04:00,79.0,61.9,30.23,North,0,2.2,3.1,56,0.00,,,0.00,meteobridge,2013-09-15 15:04:00,
2013-09-15 11:09:00,79.2,61.2,30.22,West,270,5.4,5.4,54,0.00,,,0.00,meteobridge,2013-09-15 15:09:00,
2013-09-15 11:14:00,76.5,61.0,30.22,SW,225,6.0,6.0,59,0.00,,,0.00,meteobridge,2013-09-15 15:14:00,
2013-09-15 11:19:00,75.6,60.6,30.22,West,270,3.8,6.9,60,0.00,,,0.00,meteobridge,2013-09-15 15:19:00,
2013-09-15 11:25:00,75.7,60.4,30.22,SW,225,4.5,5.4,59,0.00,,,0.00,meteobridge,2013-09-15 15:25:00,
2013-09-15 11:30:00,76.8,59.4,30.22,North,0,6.9,9.2,55,0.00,,,0.00,meteobridge,2013-09-15 15:30:00,
2013-09-15 11:35:00,77.0,59.0,30.21,North,0,9.2,9.2,54,0.00,,,0.00,meteobridge,2013-09-15 15:35:00,
2013-09-15 11:40:00,77.2,58.6,30.21,North,0,9.2,9.2,53,0.00,,,0.00,meteobridge,2013-09-15 15:40:00,
2013-09-15 11:45:00,76.8,59.4,30.21,North,0,7.6,8.3,55,0.00,,,0.00,meteobridge,2013-09-15 15:45:00,
2013-09-15 11:50:00,77.2,59.2,30.21,WSW,248,8.3,9.2,54,0.00,,,0.00,meteobridge,2013-09-15 15:50:00,
2013-09-15 11:56:00,78.1,59.5,30.21,WNW,293,7.6,7.6,53,0.00,,,0.00,meteobridge,2013-09-15 15:56:00,
2013-09-15 12:01:00,78.4,58.3,30.20,North,0,8.3,8.3,50,0.00,,,0.00,meteobridge,2013-09-15 16:01:00,
2013-09-15 12:06:00,79.0,57.0,30.20,NW,315,5.4,7.6,47,0.00,,,0.00,meteobridge,2013-09-15 16:06:00,
2013-09-15 12:11:00,79.9,59.0,30.20,North,0,5.4,5.4,49,0.00,,,0.00,meteobridge,2013-09-15 16:11:00,
2013-09-15 12:16:00,79.5,56.8,30.19,North,0,6.0,6.9,46,0.00,,,0.00,meteobridge,2013-09-15 16:16:00,
2013-09-15 12:22:00,79.3,56.1,30.19,North,0,6.9,6.9,45,0.00,,,0.00,meteobridge,2013-09-15 16:22:00,
2013-09-15 12:27:00,79.7,55.9,30.19,North,0,5.4,6.0,44,0.00,,,0.00,meteobridge,2013-09-15 16:27:00,
2013-09-15 12:32:00,81.5,56.8,30.19,North,0,4.5,4.5,43,0.00,,,0.00,meteobridge,2013-09-15 16:32:00,
2013-09-15 12:37:00,83.1,59.5,30.19,North,0,4.5,4.5,45,0.00,,,0.00,meteobridge,2013-09-15 16:37:00,
2013-09-15 12:42:00,81.5,56.8,30.18,NW,315,5.4,5.4,43,0.00,,,0.00,meteobridge,2013-09-15 16:42:00,
2013-09-15 12:47:00,81.3,56.7,30.18,NNW,338,6.9,6.9,43,0.00,,,0.00,meteobridge,2013-09-15 16:47:00,
2013-09-15 12:53:00,81.3,56.7,30.17,NW,315,4.5,6.0,43,0.00,,,0.00,meteobridge,2013-09-15 16:53:00,
2013-09-15 12:58:00,82.4,59.5,30.17,NW,315,5.4,5.4,46,0.00,,,0.00,meteobridge,2013-09-15 16:58:00,
2013-09-15 13:03:00,83.3,59.7,30.17,North,0,4.5,4.5,45,0.00,,,0.00,meteobridge,2013-09-15 17:03:00,
2013-09-15 13:08:00,81.3,57.9,30.17,West,270,6.0,6.0,45,0.00,,,0.00,meteobridge,2013-09-15 17:08:00,
2013-09-15 13:13:00,79.7,57.7,30.17,WNW,293,4.5,6.9,47,0.00,,,0.00,meteobridge,2013-09-15 17:13:00,
2013-09-15 13:18:00,79.3,58.5,30.17,SW,225,8.3,8.3,49,0.00,,,0.00,meteobridge,2013-09-15 17:18:00,
2013-09-15 13:24:00,80.1,58.6,30.17,SW,225,6.0,6.0,48,0.00,,,0.00,meteobridge,2013-09-15 17:24:00,
2013-09-15 13:29:00,80.8,58.6,30.16,SW,225,5.4,8.3,47,0.00,,,0.00,meteobridge,2013-09-15 17:29:00,
2013-09-15 13:34:00,79.9,59.5,30.16,West,270,6.9,6.9,50,0.00,,,0.00,meteobridge,2013-09-15 17:34:00,
2013-09-15 13:39:00,80.2,58.1,30.16,West,270,6.0,6.0,47,0.00,,,0.00,meteobridge,2013-09-15 17:39:00,
2013-09-15 13:44:00,80.6,58.5,30.16,West,270,5.4,6.9,47,0.00,,,0.00,meteobridge,2013-09-15 17:44:00,
2013-09-15 13:49:00,80.6,57.9,30.16,West,270,5.4,6.9,46,0.00,,,0.00,meteobridge,2013-09-15 17:49:00,
2013-09-15 13:54:00,81.0,58.8,30.16,West,270,6.9,6.9,47,0.00,,,0.00,meteobridge,2013-09-15 17:54:00,
2013-09-15 13:59:00,81.1,59.0,30.16,SW,225,6.9,7.6,47,0.00,,,0.00,meteobridge,2013-09-15 17:59:00,
2013-09-15 14:05:00,81.1,57.7,30.16,West,270,6.0,6.0,45,0.00,,,0.00,meteobridge,2013-09-15 18:05:00,
2013-09-15 14:10:00,82.0,59.2,30.16,SW,225,6.0,6.0,46,0.00,,,0.00,meteobridge,2013-09-15 18:10:00,
2013-09-15 14:15:00,82.4,59.0,30.15,SW,225,5.4,5.4,45,0.00,,,0.00,meteobridge,2013-09-15 18:15:00,
2013-09-15 14:20:00,83.1,58.3,30.15,West,270,3.8,3.8,43,0.00,,,0.00,meteobridge,2013-09-15 18:20:00,
2013-09-15 14:25:00,83.1,58.3,30.15,West,270,5.4,6.9,43,0.00,,,0.00,meteobridge,2013-09-15 18:25:00,
2013-09-15 14:30:00,81.7,57.0,30.15,West,270,6.0,7.6,43,0.00,,,0.00,meteobridge,2013-09-15 18:30:00,
2013-09-15 14:36:00,81.9,57.2,30.15,NW,315,7.6,7.6,43,0.00,,,0.00,meteobridge,2013-09-15 18:36:00,
2013-09-15 14:41:00,81.7,57.0,30.14,West,270,6.9,6.9,43,0.00,,,0.00,meteobridge,2013-09-15 18:41:00,
2013-09-15 14:46:00,81.0,57.6,30.14,SW,225,6.0,7.6,45,0.00,,,0.00,meteobridge,2013-09-15 18:46:00,
2013-09-15 14:51:00,81.1,56.5,30.14,West,270,4.5,4.5,43,0.00,,,0.00,meteobridge,2013-09-15 18:51:00,
2013-09-15 14:56:00,81.1,57.7,30.14,West,270,5.4,5.4,45,0.00,,,0.00,meteobridge,2013-09-15 18:56:00,
2013-09-15 15:01:00,81.3,57.4,30.14,SW,225,2.2,5.4,44,0.00,,,0.00,meteobridge,2013-09-15 19:01:00,
2013-09-15 15:06:00,83.5,57.9,30.13,East,90,3.8,6.9,42,0.00,,,0.00,meteobridge,2013-09-15 19:06:00,
2013-09-15 15:12:00,86.2,59.0,30.13,South,180,4.5,4.5,40,0.00,,,0.00,meteobridge,2013-09-15 19:12:00,
2013-09-15 15:17:00,84.9,57.2,30.14,SE,135,6.9,7.6,39,0.00,,,0.00,meteobridge,2013-09-15 19:17:00,
2013-09-15 15:18:00,84.4,56.7,30.14,SE,135,6.0,7.6,39,0.00,,,0.00,meteobridge,2013-09-15 19:18:00,
2013-09-15 15:23:00,82.0,56.7,30.13,South,180,9.8,9.8,42,0.00,,,0.00,meteobridge,2013-09-15 19:23:00,
2013-09-15 15:28:00,81.5,56.1,30.14,East,90,2.2,4.5,42,0.00,,,0.00,meteobridge,2013-09-15 19:28:00,
2013-09-15 15:33:00,82.6,57.7,30.14,East,90,6.9,8.3,43,0.00,,,0.00,meteobridge,2013-09-15 19:33:00,
2013-09-15 15:38:00,82.8,58.6,30.13,South,180,2.2,5.4,44,0.00,,,0.00,meteobridge,2013-09-15 19:38:00,
2013-09-15 15:44:00,83.8,59.0,30.13,SW,225,5.4,5.4,43,0.00,,,0.00,meteobridge,2013-09-15 19:44:00,
2013-09-15 15:49:00,84.4,57.4,30.12,South,180,3.8,6.9,40,0.00,,,0.00,meteobridge,2013-09-15 19:49:00,
2013-09-15 15:54:00,85.3,57.6,30.12,SW,225,2.2,3.8,39,0.00,,,0.00,meteobridge,2013-09-15 19:54:00,
2013-09-15 15:59:00,84.9,58.6,30.12,SW,225,4.5,4.5,41,0.00,,,0.00,meteobridge,2013-09-15 19:59:00,
2013-09-15 16:04:00,84.9,57.9,30.11,ESE,113,4.5,4.5,40,0.00,,,0.00,meteobridge,2013-09-15 20:04:00,
2013-09-15 16:09:00,85.8,60.8,30.12,NE,45,2.2,2.2,43,0.00,,,0.00,meteobridge,2013-09-15 20:09:00,
2013-09-15 16:15:00,88.0,59.9,30.11,SE,135,3.1,3.8,39,0.00,,,0.00,meteobridge,2013-09-15 20:15:00,
2013-09-15 16:20:00,87.6,58.8,30.11,NW,315,5.4,6.0,38,0.00,,,0.00,meteobridge,2013-09-15 20:20:00,
2013-09-15 16:25:00,87.4,59.4,30.11,SW,225,1.6,3.8,39,0.00,,,0.00,meteobridge,2013-09-15 20:25:00,
2013-09-15 16:30:00,86.7,57.4,30.11,SE,135,3.8,7.6,37,0.00,,,0.00,meteobridge,2013-09-15 20:30:00,
2013-09-15 16:35:00,85.8,58.6,30.11,SE,135,1.6,3.1,40,0.00,,,0.00,meteobridge,2013-09-15 20:35:00,
2013-09-15 16:40:00,86.0,58.1,30.11,SE,135,1.6,3.1,39,0.00,,,0.00,meteobridge,2013-09-15 20:40:00,
2013-09-15 16:46:00,87.3,58.6,30.10,NW,315,3.8,3.8,38,0.00,,,0.00,meteobridge,2013-09-15 20:46:00,
2013-09-15 16:51:00,88.7,59.9,30.10,South,180,3.1,3.1,38,0.00,,,0.00,meteobridge,2013-09-15 20:51:00,
2013-09-15 16:56:00,87.8,58.3,30.10,SE,135,5.4,7.6,37,0.00,,,0.00,meteobridge,2013-09-15 20:56:00,
2013-09-15 17:01:00,83.3,59.7,30.11,SE,135,1.6,4.5,45,0.00,,,0.00,meteobridge,2013-09-15 21:01:00,
2013-09-15 17:06:00,83.8,60.3,30.10,South,180,1.6,2.2,45,0.00,,,0.00,meteobridge,2013-09-15 21:06:00,
2013-09-15 17:11:00,87.4,60.8,30.10,North,0,2.2,2.2,41,0.00,,,0.00,meteobridge,2013-09-15 21:11:00,
2013-09-15 17:16:00,88.9,59.9,30.09,East,90,6.0,6.0,38,0.00,,,0.00,meteobridge,2013-09-15 21:16:00,
2013-09-15 17:22:00,86.2,59.0,30.09,SE,135,6.0,8.3,40,0.00,,,0.00,meteobridge,2013-09-15 21:22:00,
2013-09-15 17:27:00,84.0,60.4,30.10,SE,135,6.9,6.9,45,0.00,,,0.00,meteobridge,2013-09-15 21:27:00,
2013-09-15 17:32:00,84.0,60.4,30.10,East,90,3.8,6.0,45,0.00,,,0.00,meteobridge,2013-09-15 21:32:00,
2013-09-15 17:37:00,84.0,60.4,30.09,ESE,113,5.4,5.4,45,0.00,,,0.00,meteobridge,2013-09-15 21:37:00,
2013-09-15 17:42:00,83.7,60.1,30.10,SSE,158,6.0,6.0,45,0.00,,,0.00,meteobridge,2013-09-15 21:42:00,
2013-09-15 17:47:00,83.5,59.9,30.09,SE,135,2.2,3.8,45,0.00,,,0.00,meteobridge,2013-09-15 21:47:00,
2013-09-15 17:53:00,85.1,60.8,30.09,SW,225,3.8,3.8,44,0.00,,,0.00,meteobridge,2013-09-15 21:53:00,
2013-09-15 17:58:00,84.9,61.2,30.09,South,180,3.1,3.1,45,0.00,,,0.00,meteobridge,2013-09-15 21:58:00,
2013-09-15 18:03:00,84.7,60.4,30.09,South,180,2.2,3.1,44,0.00,,,0.00,meteobridge,2013-09-15 22:03:00,
2013-09-15 18:08:00,84.0,61.0,30.09,South,180,2.2,3.8,46,0.00,,,0.00,meteobridge,2013-09-15 22:08:00,
2013-09-15 18:13:00,84.4,60.8,30.09,SE,135,6.9,6.9,45,0.00,,,0.00,meteobridge,2013-09-15 22:13:00,
2013-09-15 18:18:00,83.7,60.6,30.09,SE,135,2.2,3.8,46,0.00,,,0.00,meteobridge,2013-09-15 22:18:00,
2013-09-15 18:24:00,83.7,60.6,30.09,East,90,4.5,6.0,46,0.00,,,0.00,meteobridge,2013-09-15 22:24:00,
2013-09-15 18:29:00,83.7,60.6,30.09,SE,135,3.8,4.5,46,0.00,,,0.00,meteobridge,2013-09-15 22:29:00,
2013-09-15 18:34:00,83.8,60.8,30.09,ENE,68,4.5,6.0,46,0.00,,,0.00,meteobridge,2013-09-15 22:34:00,
2013-09-15 18:39:00,82.9,60.6,30.09,SE,135,4.5,5.4,47,0.00,,,0.00,meteobridge,2013-09-15 22:39:00,
2013-09-15 18:44:00,82.2,59.9,30.09,SE,135,3.1,4.5,47,0.00,,,0.00,meteobridge,2013-09-15 22:44:00,
2013-09-15 18:49:00,82.6,61.0,30.09,SE,135,3.1,3.1,48,0.00,,,0.00,meteobridge,2013-09-15 22:49:00,
2013-09-15 18:55:00,82.6,61.0,30.09,South,180,1.6,3.1,48,0.00,,,0.00,meteobridge,2013-09-15 22:55:00,
2013-09-15 19:00:00,82.2,61.2,30.09,SE,135,2.2,2.2,49,0.00,,,0.00,meteobridge,2013-09-15 23:00:00,
2013-09-15 19:05:00,81.5,61.7,30.09,SE,135,2.2,2.2,51,0.00,,,0.00,meteobridge,2013-09-15 23:05:00,
2013-09-15 19:10:00,79.9,61.7,30.08,SE,135,1.6,1.6,54,0.00,,,0.00,meteobridge,2013-09-15 23:10:00,
2013-09-15 19:15:00,78.4,61.9,30.08,SE,135,1.6,1.6,57,0.00,,,0.00,meteobridge,2013-09-15 23:15:00,
2013-09-15 19:20:00,77.4,62.4,30.08,SE,135,2.2,2.2,60,0.00,,,0.00,meteobridge,2013-09-15 23:20:00,
2013-09-15 19:26:00,76.5,63.0,30.09,SE,135,2.2,2.2,63,0.00,,,0.00,meteobridge,2013-09-15 23:26:00,
2013-09-15 19:31:00,75.6,62.6,30.08,SE,135,1.6,2.2,64,0.00,,,0.00,meteobridge,2013-09-15 23:31:00,
2013-09-15 19:36:00,74.8,62.8,30.08,SE,135,3.1,3.1,66,0.00,,,0.00,meteobridge,2013-09-15 23:36:00,
2013-09-15 19:41:00,74.1,63.0,30.08,SE,135,2.2,3.1,68,0.00,,,0.00,meteobridge,2013-09-15 23:41:00,
2013-09-15 19:46:00,73.8,63.0,30.09,East,90,3.1,3.1,69,0.00,,,0.00,meteobridge,2013-09-15 23:46:00,
2013-09-15 19:51:00,73.2,62.8,30.09,ESE,113,3.1,3.1,70,0.00,,,0.00,meteobridge,2013-09-15 23:51:00,
2013-09-15 19:57:00,72.9,63.0,30.08,East,90,3.1,3.1,71,0.00,,,0.00,meteobridge,2013-09-15 23:57:00,
2013-09-15 20:02:00,72.7,62.8,30.09,SE,135,3.1,3.1,71,0.00,,,0.00,meteobridge,2013-09-16 00:02:00,
2013-09-15 20:07:00,72.3,62.8,30.09,SE,135,3.1,3.1,72,0.00,,,0.00,meteobridge,2013-09-16 00:07:00,
2013-09-15 20:12:00,72.1,62.6,30.09,East,90,3.1,3.1,72,0.00,,,0.00,meteobridge,2013-09-16 00:12:00,
2013-09-15 20:17:00,72.0,62.8,30.09,East,90,3.1,3.1,73,0.00,,,0.00,meteobridge,2013-09-16 00:17:00,
2013-09-15 20:22:00,71.8,62.6,30.09,ESE,113,2.2,3.1,73,0.00,,,0.00,meteobridge,2013-09-16 00:22:00,
2013-09-15 20:28:00,71.6,62.4,30.09,East,90,3.1,3.1,73,0.00,,,0.00,meteobridge,2013-09-16 00:28:00,
2013-09-15 20:33:00,71.2,63.0,30.09,SE,135,3.1,3.1,75,0.00,,,0.00,meteobridge,2013-09-16 00:33:00,
2013-09-15 20:38:00,71.1,62.8,30.10,SE,135,3.1,3.1,75,0.00,,,0.00,meteobridge,2013-09-16 00:38:00,
2013-09-15 20:43:00,70.9,63.0,30.10,East,90,3.1,3.1,76,0.00,,,0.00,meteobridge,2013-09-16 00:43:00,
2013-09-15 20:48:00,70.7,62.8,30.10,East,90,3.1,3.1,76,0.00,,,0.00,meteobridge,2013-09-16 00:48:00,
2013-09-15 20:53:00,70.5,62.6,30.11,East,90,2.2,3.1,76,0.00,,,0.00,meteobridge,2013-09-16 00:53:00,
2013-09-15 20:59:00,70.3,62.8,30.11,SE,135,2.2,2.2,77,0.00,,,0.00,meteobridge,2013-09-16 00:59:00,
2013-09-15 21:04:00,70.3,63.1,30.11,East,90,2.2,2.2,78,0.00,,,0.00,meteobridge,2013-09-16 01:04:00,
2013-09-15 21:09:00,70.2,63.0,30.11,SE,135,1.6,2.2,78,0.00,,,0.00,meteobridge,2013-09-16 01:09:00,
2013-09-15 21:14:00,70.0,63.1,30.11,East,90,2.2,2.2,79,0.00,,,0.00,meteobridge,2013-09-16 01:14:00,
2013-09-15 21:19:00,70.0,63.1,30.11,East,90,3.1,3.1,79,0.00,,,0.00,meteobridge,2013-09-16 01:19:00,
2013-09-15 21:24:00,69.8,63.0,30.11,SE,135,2.2,2.2,79,0.00,,,0.00,meteobridge,2013-09-16 01:24:00,
2013-09-15 21:30:00,69.6,63.1,30.11,SE,135,3.1,3.1,80,0.00,,,0.00,meteobridge,2013-09-16 01:30:00,
2013-09-15 21:35:00,69.3,63.5,30.12,SE,135,3.1,3.1,82,0.00,,,0.00,meteobridge,2013-09-16 01:35:00,
2013-09-15 21:40:00,69.1,63.3,30.12,SE,135,2.2,3.1,82,0.00,,,0.00,meteobridge,2013-09-16 01:40:00,
2013-09-15 21:45:00,68.9,63.5,30.12,ESE,113,2.2,3.1,83,0.00,,,0.00,meteobridge,2013-09-16 01:45:00,
2013-09-15 21:50:00,68.7,63.3,30.12,SE,135,3.1,3.1,83,0.00,,,0.00,meteobridge,2013-09-16 01:50:00,
2013-09-15 21:56:00,68.5,63.1,30.12,SE,135,2.2,3.1,83,0.00,,,0.00,meteobridge,2013-09-16 01:56:00,
2013-09-15 22:01:00,68.5,63.1,30.13,SE,135,3.1,3.1,83,0.00,,,0.00,meteobridge,2013-09-16 02:01:00,
2013-09-15 22:06:00,68.4,63.3,30.13,East,90,2.2,3.1,84,0.00,,,0.00,meteobridge,2013-09-16 02:06:00,
2013-09-15 22:11:00,68.2,63.1,30.13,SE,135,3.1,3.1,84,0.00,,,0.00,meteobridge,2013-09-16 02:11:00,
2013-09-15 22:16:00,68.2,63.1,30.13,SE,135,2.2,3.1,84,0.00,,,0.00,meteobridge,2013-09-16 02:16:00,
2013-09-15 22:21:00,68.4,63.3,30.13,SE,135,2.2,2.2,84,0.00,,,0.00,meteobridge,2013-09-16 02:21:00,
2013-09-15 22:27:00,68.5,63.5,30.14,SE,135,2.2,2.2,84,0.00,,,0.00,meteobridge,2013-09-16 02:27:00,
2013-09-15 22:32:00,68.7,63.7,30.13,East,90,3.1,3.1,84,0.00,,,0.00,meteobridge,2013-09-16 02:32:00,
2013-09-15 22:37:00,68.7,63.7,30.12,SE,135,3.8,3.8,84,0.00,,,0.00,meteobridge,2013-09-16 02:37:00,
2013-09-15 22:42:00,68.5,63.5,30.13,SE,135,3.1,3.1,84,0.00,,,0.00,meteobridge,2013-09-16 02:42:00,
2013-09-15 22:47:00,68.5,63.5,30.13,SE,135,3.1,3.1,84,0.00,,,0.00,meteobridge,2013-09-16 02:47:00,
2013-09-15 22:52:00,68.4,63.3,30.13,South,180,3.1,3.1,84,0.00,,,0.00,meteobridge,2013-09-16 02:52:00,
2013-09-15 22:58:00,68.2,63.5,30.13,SE,135,3.1,3.1,85,0.00,,,0.00,meteobridge,2013-09-16 02:58:00,
2013-09-15 23:03:00,68.0,63.0,30.13,SE,135,3.1,4.5,84,0.00,,,0.00,meteobridge,2013-09-16 03:03:00,
2013-09-15 23:08:00,68.0,63.3,30.13,SE,135,3.1,3.1,85,0.00,,,0.00,meteobridge,2013-09-16 03:08:00,
2013-09-15 23:13:00,68.2,63.5,30.13,SE,135,2.2,3.1,85,0.00,,,0.00,meteobridge,2013-09-16 03:13:00,
2013-09-15 23:18:00,68.5,63.9,30.13,SE,135,2.2,3.1,85,0.00,,,0.00,meteobridge,2013-09-16 03:18:00,
2013-09-15 23:23:00,68.4,63.3,30.13,SE,135,2.2,2.2,84,0.00,,,0.00,meteobridge,2013-09-16 03:23:00,
2013-09-15 23:29:00,68.4,63.3,30.14,East,90,2.2,2.2,84,0.00,,,0.00,meteobridge,2013-09-16 03:29:00,
2013-09-15 23:34:00,68.4,63.7,30.13,East,90,2.2,2.2,85,0.00,,,0.00,meteobridge,2013-09-16 03:34:00,
2013-09-15 23:39:00,68.2,63.5,30.13,SE,135,2.2,2.2,85,0.00,,,0.00,meteobridge,2013-09-16 03:39:00,
2013-09-15 23:44:00,68.2,63.5,30.13,SE,135,1.6,2.2,85,0.00,,,0.00,meteobridge,2013-09-16 03:44:00,
2013-09-15 23:49:00,68.0,63.3,30.13,East,90,2.2,2.2,85,0.00,,,0.00,meteobridge,2013-09-16 03:49:00,
2013-09-15 23:54:00,67.8,63.5,30.13,SE,135,2.2,2.2,86,0.00,,,0.00,meteobridge,2013-09-16 03:54:00,